Time;durP1;ratioP1;P1;durP2;ratioP2;P2;SDS_P1;SDS_P2;PMS_P1;PMS_P2;Temp;Humidity;BMP_temperature;BMP_pressure;BME280_temperature;BME280_humidity;BME280_pressure;Samples;Min_cycle;Max_cycle;Signal;HPM_P1;HPM_P2
2023/01/14 00:01:14;;;;;;;4.15;1.13;;;3.50;99.90;;;;;;5078807;28;20036;-62
2023/01/14 00:03:42;;;;;;;4.13;0.85;;;3.50;99.90;;;;;;5067528;28;20041;-62
2023/01/14 00:06:12;;;;;;;;;;;3.50;99.90;;;;;;5075914;28;20548;-62
2023/01/14 00:08:40;;;;;;;2.75;0.75;;;3.40;99.90;;;;;;5047998;28;20341;-62
2023/01/14 00:11:08;;;;;;;0.82;0.40;;;3.40;99.90;;;;;;5066176;28;20080;-62
2023/01/14 00:13:38;;;;;;;2.38;0.30;;;3.40;99.90;;;;;;5069966;28;20040;-62
2023/01/14 00:16:06;;;;;;;5.18;0.60;;;3.40;99.90;;;;;;5050057;28;20316;-62
2023/01/14 00:18:34;;;;;;;1.52;0.32;;;3.40;99.90;;;;;;5067897;28;20060;-62
2023/01/14 00:21:13;;;;;;;1.05;0.32;;;3.30;99.90;;;;;;5064965;28;20098;-62
2023/01/14 00:23:41;;;;;;;1.02;0.20;;;3.30;99.90;;;;;;5069379;28;20045;-62
2023/01/14 00:26:13;;;;;;;1.05;0.45;;;3.20;99.90;;;;;;5069661;28;20064;-62
2023/01/14 00:28:41;;;;;;;1.08;0.20;;;3.20;99.90;;;;;;5076953;28;20520;-63
2023/01/14 00:31:10;;;;;;;2.80;0.40;;;3.20;99.90;;;;;;5072249;28;20562;-62
2023/01/14 00:33:38;;;;;;;2.97;0.30;;;3.20;99.90;;;;;;5080308;28;20040;-62
2023/01/14 00:36:07;;;;;;;0.70;0.20;;;3.20;99.90;;;;;;5062786;28;20037;-62
2023/01/14 00:38:34;;;;;;;0.40;0.30;;;3.10;99.90;;;;;;5074517;28;20376;-62
2023/01/14 00:41:10;;;;;;;1.75;0.20;;;3.10;99.90;;;;;;5076462;28;20090;-62
2023/01/14 00:43:42;;;;;;;0.98;0.30;;;3.10;99.90;;;;;;5047398;28;20055;-62
2023/01/14 00:46:23;;;;;;;1.35;0.47;;;3.20;99.90;;;;;;5042670;28;20052;-62
2023/01/14 00:48:50;;;;;;;2.45;0.60;;;3.20;99.90;;;;;;5073727;28;20131;-62
2023/01/14 00:51:18;;;;;;;3.83;0.50;;;3.20;99.90;;;;;;5053770;28;20044;-62
2023/01/14 00:53:46;;;;;;;3.08;0.70;;;3.10;99.90;;;;;;5054054;28;20032;-62
2023/01/14 00:56:17;;;;;;;;;;;3.10;99.90;;;;;;5053259;28;20095;-63
2023/01/14 00:58:44;;;;;;;1.75;0.50;;;3.10;99.90;;;;;;5048136;28;20043;-63
2023/01/14 01:01:11;;;;;;;0.60;0.25;;;3.10;99.90;;;;;;5051554;28;20452;-62
2023/01/14 01:03:39;;;;;;;;;;;3.10;99.90;;;;;;5052270;28;20087;-62
2023/01/14 01:06:06;;;;;;;2.10;0.40;;;3.20;99.90;;;;;;5043031;28;20347;-62
2023/01/14 01:08:33;;;;;;;0.95;0.35;;;3.10;99.90;;;;;;5072643;28;20040;-62
2023/01/14 01:11:01;;;;;;;1.20;0.20;;;3.20;99.90;;;;;;5054829;28;20056;-62
2023/01/14 01:13:27;;;;;;;0.52;0.25;;;3.20;99.90;;;;;;5053811;28;20056;-62
2023/01/14 01:15:59;;;;;;;0.88;0.22;;;3.30;99.90;;;;;;5066444;28;20029;-63
2023/01/14 01:18:27;;;;;;;1.27;0.50;;;3.40;99.90;;;;;;5073385;28;20094;-62
2023/01/14 01:21:00;;;;;;;;;;;3.30;99.90;;;;;;5054272;28;20108;-62
2023/01/14 01:23:29;;;;;;;1.85;0.63;;;3.30;99.90;;;;;;5073425;28;20026;-62
2023/01/14 01:26:03;;;;;;;2.17;0.60;;;3.30;99.90;;;;;;5069397;28;20498;-62
2023/01/14 01:28:31;;;;;;;3.50;0.57;;;3.30;99.90;;;;;;5037167;28;20052;-62
2023/01/14 01:31:08;;;;;;;2.80;0.75;;;3.30;99.90;;;;;;5035878;28;20554;-62
2023/01/14 01:33:35;;;;;;;1.23;0.60;;;3.30;99.90;;;;;;5059371;28;20040;-62
2023/01/14 01:36:08;;;;;;;3.80;0.68;;;3.40;99.90;;;;;;5048216;28;20053;-62
2023/01/14 01:38:35;;;;;;;4.05;1.45;;;3.40;99.90;;;;;;5052042;28;20099;-62
2023/01/14 01:41:03;;;;;;;1.23;0.90;;;3.40;99.90;;;;;;5060264;28;20045;-62
2023/01/14 01:43:31;;;;;;;;;;;3.40;99.90;;;;;;5053536;28;20513;-62
2023/01/14 01:45:59;;;;;;;4.57;1.55;;;3.30;99.90;;;;;;5049597;28;19920;-62
2023/01/14 01:48:43;;;;;;;5.07;1.10;;;3.20;99.90;;;;;;5055424;28;20404;-62
2023/01/14 01:51:16;;;;;;;2.47;0.90;;;3.10;99.90;;;;;;5054382;28;20578;-62
2023/01/14 01:53:45;;;;;;;1.52;0.90;;;3.10;99.90;;;;;;5068380;28;20512;-62
2023/01/14 01:56:17;;;;;;;1.08;0.80;;;3.10;99.90;;;;;;5065263;28;20304;-62
2023/01/14 01:58:45;;;;;;;1.90;0.63;;;3.10;99.90;;;;;;5054522;28;20037;-62
2023/01/14 02:01:13;;;;;;;2.90;0.50;;;3.10;99.90;;;;;;5049246;28;20052;-62
2023/01/14 02:03:42;;;;;;;0.85;0.40;;;3.10;99.90;;;;;;5053915;28;20135;-62
2023/01/14 02:06:10;;;;;;;1.52;0.38;;;3.10;99.90;;;;;;5053118;28;20052;-62
2023/01/14 02:08:41;;;;;;;2.25;0.80;;;3.20;99.90;;;;;;5056090;28;20444;-62
2023/01/14 02:11:50;;;;;;;1.48;0.60;;;3.20;99.90;;;;;;5072261;28;20049;-62
2023/01/14 02:14:23;;;;;;;2.88;0.85;;;3.20;99.90;;;;;;5027185;28;20336;-63
2023/01/14 02:17:15;;;;;;;3.13;0.85;;;3.20;99.90;;;;;;5048794;28;20048;-62
2023/01/14 02:19:56;;;;;;;1.30;0.52;;;3.20;99.90;;;;;;5045536;28;20080;-62
2023/01/14 02:22:59;;;;;;;1.30;0.77;;;3.10;99.90;;;;;;5054084;28;20053;-62
2023/01/14 02:26:03;;;;;;;2.25;0.63;;;3.20;99.90;;;;;;5048834;28;20099;-62
2023/01/14 02:29:23;;;;;;;2.47;0.70;;;3.20;99.90;;;;;;5052318;28;20056;-62
2023/01/14 02:32:00;;;;;;;1.80;0.70;;;3.30;99.90;;;;;;5028765;28;20052;-62
2023/01/14 02:34:36;;;;;;;2.50;0.65;;;3.30;99.90;;;;;;5052682;28;20082;-62
2023/01/14 02:37:31;;;;;;;3.40;0.90;;;3.30;99.90;;;;;;5039485;28;20528;-63
2023/01/14 02:40:14;;;;;;;1.13;0.60;;;3.30;99.90;;;;;;5044748;28;20037;-62
2023/01/14 02:45:47;;;;;;;2.88;0.90;;;3.30;99.90;;;;;;5053248;28;20102;-63
2023/01/14 02:48:15;;;;;;;2.03;1.20;;;3.30;99.90;;;;;;5062086;28;20048;-63
2023/01/14 02:50:43;;;;;;;4.20;1.45;;;3.30;99.90;;;;;;5050847;28;20103;-62
2023/01/14 02:53:12;;;;;;;3.85;1.65;;;3.30;99.90;;;;;;5040666;28;20527;-62
2023/01/14 02:55:38;;;;;;;3.85;1.50;;;3.30;99.90;;;;;;5062565;28;20041;-63
2023/01/14 02:58:43;;;;;;;5.03;1.45;;;3.30;99.90;;;;;;5053340;28;20055;-62
2023/01/14 03:01:43;;;;;;;2.10;1.48;;;3.30;99.90;;;;;;5053464;28;20458;-63
2023/01/14 03:04:32;;;;;;;2.85;1.45;;;3.30;99.90;;;;;;5054867;28;20056;-62
2023/01/14 03:07:18;;;;;;;3.10;1.45;;;3.30;99.90;;;;;;5035635;28;20106;-63
2023/01/14 03:10:01;;;;;;;1.95;1.00;;;3.30;99.90;;;;;;5046979;28;20052;-62
2023/01/14 03:12:35;;;;;;;1.60;0.80;;;3.30;99.90;;;;;;5047250;28;20044;-63
2023/01/14 03:15:09;;;;;;;4.15;0.95;;;3.30;99.90;;;;;;5033378;28;20417;-62
2023/01/14 03:17:54;;;;;;;2.42;1.38;;;3.30;99.90;;;;;;5049078;28;20084;-62
2023/01/14 03:20:26;;;;;;;2.95;1.63;;;3.30;99.90;;;;;;5063060;28;20105;-62
2023/01/14 03:22:56;;;;;;;3.05;1.70;;;3.30;99.90;;;;;;5051571;28;20102;-62
2023/01/14 03:25:25;;;;;;;3.15;1.40;;;3.30;99.90;;;;;;5071358;28;20044;-62
2023/01/14 03:27:59;;;;;;;1.85;1.20;;;3.20;99.90;;;;;;5050752;28;20071;-62
2023/01/14 03:30:35;;;;;;;1.20;0.88;;;3.20;99.90;;;;;;5052941;28;20051;-62
2023/01/14 03:33:11;;;;;;;2.05;1.00;;;3.20;99.90;;;;;;5069591;28;20037;-62
2023/01/14 03:35:40;;;;;;;2.90;1.20;;;3.20;99.90;;;;;;5052742;28;20041;-62
2023/01/14 03:38:32;;;;;;;3.72;1.13;;;3.20;99.90;;;;;;5040788;28;20095;-62
2023/01/14 03:41:00;;;;;;;2.05;1.20;;;3.10;99.90;;;;;;5055269;28;20049;-62
2023/01/14 03:43:36;;;;;;;2.50;1.40;;;3.10;99.90;;;;;;5071164;28;20044;-62
2023/01/14 03:46:03;;;;;;;2.75;1.52;;;3.20;99.90;;;;;;5069356;28;20093;-62
2023/01/14 03:48:30;;;;;;;3.65;1.95;;;3.20;99.90;;;;;;5071092;28;20119;-62
2023/01/14 03:51:21;;;;;;;3.72;2.30;;;3.20;99.90;;;;;;5063463;28;20123;-62
2023/01/14 03:54:00;;;;;;;8.25;2.40;;;3.30;99.90;;;;;;5070881;28;20760;-62
2023/01/14 03:56:39;;;;;;;2.55;1.45;;;3.20;99.90;;;;;;5070680;28;20489;-62
2023/01/14 03:59:13;;;;;;;5.00;2.08;;;3.20;99.90;;;;;;5061366;28;20033;-62
2023/01/14 04:01:49;;;;;;;2.38;1.90;;;3.20;99.90;;;;;;5069948;28;20079;-62
2023/01/14 04:04:17;;;;;;;4.47;2.45;;;3.20;99.90;;;;;;5070792;28;20079;-62
2023/01/14 04:06:44;;;;;;;4.18;2.10;;;3.20;99.90;;;;;;5063043;28;20068;-62
2023/01/14 04:09:10;;;;;;;5.68;2.72;;;3.20;99.90;;;;;;5065981;28;20091;-62
2023/01/14 04:11:39;;;;;;;5.07;2.55;;;3.30;99.90;;;;;;5066717;28;20135;-62
2023/01/14 04:16:51;;;;;;;5.00;3.40;;;3.30;99.90;;;;;;5063175;28;20118;-62
2023/01/14 04:19:18;;;;;;;5.60;3.90;;;3.20;99.90;;;;;;5062756;28;20063;-62
2023/01/14 04:21:44;;;;;;;5.47;3.55;;;3.20;99.90;;;;;;5060776;28;20071;-62
2023/01/14 04:24:11;;;;;;;4.88;3.35;;;3.20;99.90;;;;;;5068213;28;20044;-62
2023/01/14 04:26:38;;;;;;;7.97;4.35;;;3.30;99.90;;;;;;5068656;28;20140;-62
2023/01/14 04:29:05;;;;;;;11.23;5.60;;;3.30;99.90;;;;;;5058675;28;20040;-62
2023/01/14 04:31:31;;;;;;;11.38;5.22;;;3.30;99.90;;;;;;5070320;28;20193;-62
2023/01/14 04:33:58;;;;;;;10.73;4.70;;;3.30;99.90;;;;;;5069078;28;20040;-62
2023/01/14 04:36:25;;;;;;;8.43;4.15;;;3.20;99.90;;;;;;5070482;28;20049;-62
2023/01/14 04:38:51;;;;;;;5.22;2.78;;;3.20;99.90;;;;;;5062985;28;20029;-62
2023/01/14 04:44:04;;;;;;;12.90;6.68;;;3.20;99.90;;;;;;5070270;28;20045;-62
2023/01/14 04:46:30;;;;;;;9.07;4.57;;;3.10;99.90;;;;;;5070231;28;20064;-62
2023/01/14 04:48:57;;;;;;;9.25;4.97;;;3.10;99.90;;;;;;5066096;28;20568;-62
2023/01/14 04:51:24;;;;;;;8.52;4.90;;;3.10;99.90;;;;;;5059382;28;20348;-62
2023/01/14 04:53:51;;;;;;;8.63;5.07;;;3.10;99.90;;;;;;5072805;28;20085;-62
2023/01/14 04:56:17;;;;;;;10.25;5.22;;;3.00;99.90;;;;;;5077691;28;20064;-62
2023/01/14 04:58:44;;;;;;;10.30;5.38;;;3.10;99.90;;;;;;5065593;28;20087;-62
2023/01/14 05:01:11;;;;;;;9.00;3.97;;;3.10;99.90;;;;;;5051162;28;20489;-62
2023/01/14 05:03:38;;;;;;;6.07;4.20;;;3.00;99.90;;;;;;5065165;28;20044;-62
2023/01/14 05:06:05;;;;;;;7.40;3.55;;;3.00;99.90;;;;;;5068368;28;20049;-62
2023/01/14 05:08:32;;;;;;;3.97;2.45;;;2.90;99.90;;;;;;5064059;28;20068;-62
2023/01/14 05:10:59;;;;;;;9.63;5.75;;;2.90;99.90;;;;;;5051168;28;20059;-62
2023/01/14 05:13:25;;;;;;;12.35;6.63;;;2.90;99.90;;;;;;5069249;28;20040;-62
2023/01/14 05:15:57;;;;;;;10.20;6.55;;;2.80;99.90;;;;;;5069894;28;20102;-62
2023/01/14 05:18:25;;;;;;;12.85;5.70;;;2.80;99.90;;;;;;5066568;28;20378;-62
2023/01/14 05:20:51;;;;;;;9.77;5.03;;;2.80;99.90;;;;;;5040143;28;20041;-62
2023/01/14 05:23:19;;;;;;;8.68;5.70;;;2.70;99.90;;;;;;5065777;28;20052;-62
2023/01/14 05:25:47;;;;;;;9.90;5.68;;;2.80;99.90;;;;;;5070131;28;20094;-62
2023/01/14 05:28:16;;;;;;;12.75;6.53;;;2.80;99.90;;;;;;5069390;28;20056;-62
2023/01/14 05:30:44;;;;;;;11.48;5.63;;;2.80;99.90;;;;;;5061896;28;20071;-62
2023/01/14 05:33:10;;;;;;;;;;;2.80;99.90;;;;;;5072980;28;20614;-62
2023/01/14 05:35:37;;;;;;;7.82;4.90;;;2.80;99.90;;;;;;5071200;28;19924;-62
2023/01/14 05:38:06;;;;;;;9.57;5.85;;;2.80;99.90;;;;;;5065280;28;20053;-62
2023/01/14 05:40:33;;;;;;;13.27;6.10;;;2.80;99.90;;;;;;5063748;28;20040;-62
2023/01/14 05:45:49;;;;;;;11.82;5.13;;;2.80;99.90;;;;;;5064034;28;20059;-62
2023/01/14 05:48:23;;;;;;;9.60;5.38;;;2.80;99.90;;;;;;5064016;28;20036;-62
2023/01/14 05:50:55;;;;;;;9.77;5.82;;;2.80;99.90;;;;;;5072146;28;20048;-62
2023/01/14 05:53:23;;;;;;;9.10;5.22;;;2.90;99.90;;;;;;5072794;28;20082;-62
2023/01/14 05:55:50;;;;;;;;;;;2.90;99.90;;;;;;5072448;28;20521;-62
2023/01/14 05:58:17;;;;;;;7.32;3.55;;;2.80;99.90;;;;;;5063618;28;20357;-62
2023/01/14 06:06:21;;;;;;;8.05;4.95;;;2.80;99.90;;;;;;5065127;28;20044;-62
2023/01/14 06:09:10;;;;;;;9.48;5.50;;;2.70;99.90;;;;;;5072564;28;20052;-62
2023/01/14 06:11:40;;;;;;;12.23;5.30;;;2.60;99.90;;;;;;5071965;28;20052;-62
2023/01/14 06:14:07;;;;;;;11.85;6.05;;;2.60;99.90;;;;;;5064711;28;20033;-62
2023/01/14 06:16:40;;;;;;;12.70;5.47;;;2.50;99.90;;;;;;5071773;28;20493;-62
2023/01/14 06:19:09;;;;;;;8.13;5.22;;;2.50;99.90;;;;;;5071472;28;20044;-62
2023/01/14 06:21:37;;;;;;;10.85;5.95;;;2.40;99.90;;;;;;5072630;28;20045;-62
2023/01/14 06:24:04;;;;;;;11.63;6.53;;;2.40;99.90;;;;;;5071579;28;20040;-62
2023/01/14 06:26:33;;;;;;;14.68;7.25;;;2.40;99.90;;;;;;5069673;28;20056;-62
2023/01/14 06:29:03;;;;;;;15.55;8.35;;;2.40;99.90;;;;;;5065686;28;20063;-62
2023/01/14 06:31:30;;;;;;;13.63;7.95;;;2.40;99.90;;;;;;5070579;28;20117;-62
2023/01/14 06:33:58;;;;;;;14.45;7.40;;;2.40;99.90;;;;;;5063042;28;20075;-62
2023/01/14 06:36:25;;;;;;;13.38;7.78;;;2.40;99.90;;;;;;5071336;28;20044;-62
2023/01/14 06:38:52;;;;;;;24.67;11.40;;;2.40;99.90;;;;;;5041466;28;20382;-62
2023/01/14 06:41:19;;;;;;;22.95;12.30;;;2.40;99.90;;;;;;5068063;28;20134;-62
2023/01/14 06:43:46;;;;;;;18.52;10.93;;;2.50;99.90;;;;;;5050547;28;20049;-62
2023/01/14 06:46:15;;;;;;;21.42;10.40;;;2.50;99.90;;;;;;5072328;28;20040;-62
2023/01/14 06:48:43;;;;;;;17.33;9.10;;;2.50;99.90;;;;;;5070586;28;20068;-62
2023/01/14 06:51:13;;;;;;;15.77;8.63;;;2.60;99.90;;;;;;5054009;28;20068;-62
2023/01/14 06:53:41;;;;;;;21.15;9.90;;;2.60;99.90;;;;;;5067121;28;20045;-62
2023/01/14 06:56:13;;;;;;;26.33;10.98;;;2.60;99.90;;;;;;5065748;28;20037;-62
2023/01/14 06:58:40;;;;;;;21.83;12.13;;;2.60;99.90;;;;;;5062551;28;20087;-62
2023/01/14 07:01:09;;;;;;;19.27;10.30;;;2.70;99.90;;;;;;5071696;28;20101;-62
2023/01/14 07:03:37;;;;;;;18.83;9.05;;;2.60;99.90;;;;;;5071317;28;20040;-62
2023/01/14 07:06:04;;;;;;;20.63;10.15;;;2.60;99.90;;;;;;5064221;28;20033;-62
2023/01/14 07:08:31;;;;;;;23.38;11.23;;;2.60;99.90;;;;;;5069744;28;20044;-62
2023/01/14 07:10:58;;;;;;;24.42;11.07;;;2.70;99.90;;;;;;5071416;28;20044;-62
2023/01/14 07:13:25;;;;;;;24.60;12.07;;;2.80;99.90;;;;;;5070078;28;20471;-63
2023/01/14 07:15:51;;;;;;;19.73;9.25;;;2.80;99.90;;;;;;5062146;28;20075;-62
2023/01/14 07:18:19;;;;;;;15.27;7.45;;;2.80;99.90;;;;;;5067494;28;20044;-62
2023/01/14 07:20:45;;;;;;;15.15;6.45;;;2.80;99.90;;;;;;5071502;28;20052;-62
2023/01/14 07:23:12;;;;;;;11.98;6.28;;;2.70;99.90;;;;;;5070810;28;20102;-62
2023/01/14 07:25:39;;;;;;;11.07;5.60;;;2.70;99.90;;;;;;5071000;28;20040;-62
2023/01/14 07:28:06;;;;;;;13.45;4.93;;;2.60;99.90;;;;;;5070749;28;20123;-62
2023/01/14 07:30:33;;;;;;;13.02;6.78;;;2.70;99.90;;;;;;5071360;28;20052;-62
2023/01/14 07:33:00;;;;;;;18.85;8.93;;;2.70;99.90;;;;;;5052989;28;20605;-62
2023/01/14 07:35:28;;;;;;;31.92;15.15;;;2.70;99.90;;;;;;5069182;28;20045;-62
2023/01/14 07:37:56;;;;;;;24.10;11.52;;;2.70;99.90;;;;;;5066733;28;20040;-62
2023/01/14 07:40:24;;;;;;;19.63;9.45;;;2.70;99.90;;;;;;5070464;28;20045;-62
2023/01/14 07:42:59;;;;;;;23.92;10.13;;;2.70;99.90;;;;;;5069334;28;20588;-62
2023/01/14 07:45:27;;;;;;;20.33;9.30;;;2.80;99.90;;;;;;5068217;28;20461;-62
2023/01/14 07:47:55;;;;;;;25.73;10.73;;;2.90;99.90;;;;;;5069945;28;20041;-62
2023/01/14 07:50:23;;;;;;;33.97;13.95;;;2.90;99.90;;;;;;5070122;28;20072;-62
2023/01/14 07:52:55;;;;;;;39.47;17.17;;;2.90;99.90;;;;;;5070299;28;20048;-62
2023/01/14 07:55:22;;;;;;;32.35;15.65;;;2.90;99.90;;;;;;5036677;28;20040;-62
2023/01/14 07:57:49;;;;;;;19.85;10.55;;;3.00;99.90;;;;;;5071359;28;20041;-62
2023/01/14 08:00:17;;;;;;;20.85;10.27;;;3.00;99.90;;;;;;5044548;28;20456;-62
2023/01/14 08:02:44;;;;;;;20.38;9.95;;;3.10;99.90;;;;;;5070752;28;20037;-62
2023/01/14 08:05:10;;;;;;;22.77;9.77;;;3.10;99.90;;;;;;5069528;28;20061;-62
2023/01/14 08:07:37;;;;;;;17.27;8.40;;;3.20;99.90;;;;;;5070465;28;20519;-62
2023/01/14 08:10:05;;;;;;;12.15;6.28;;;3.20;99.90;;;;;;5061733;28;20040;-62
2023/01/14 08:12:32;;;;;;;18.23;8.48;;;3.30;99.90;;;;;;5070684;28;20068;-62
2023/01/14 08:15:03;;;;;;;18.40;9.43;;;3.30;99.90;;;;;;5068048;28;20028;-62
2023/01/14 08:17:29;;;;;;;17.70;8.70;;;3.40;99.90;;;;;;5071014;28;20098;-62
2023/01/14 08:19:56;;;;;;;14.35;8.38;;;3.50;99.90;;;;;;5069397;28;20448;-62
2023/01/14 08:22:23;;;;;;;16.90;8.85;;;3.50;99.90;;;;;;5069919;28;20048;-62
2023/01/14 08:24:50;;;;;;;16.58;7.88;;;3.60;99.90;;;;;;5064013;28;20040;-62
2023/01/14 08:27:17;;;;;;;12.32;6.65;;;3.50;99.90;;;;;;5071033;28;20097;-62
2023/01/14 08:29:45;;;;;;;13.50;6.78;;;3.50;99.90;;;;;;5067484;28;20040;-62
2023/01/14 08:32:13;;;;;;;17.33;8.10;;;3.50;99.90;;;;;;5070377;28;20102;-62
2023/01/14 08:34:40;;;;;;;16.48;8.38;;;3.60;99.90;;;;;;5069580;28;20079;-62
2023/01/14 08:37:06;;;;;;;19.63;9.27;;;3.70;99.90;;;;;;5070937;28;20501;-62
2023/01/14 08:39:33;;;;;;;13.82;7.97;;;3.80;99.90;;;;;;5067524;28;20052;-62
2023/01/14 08:42:00;;;;;;;12.88;7.55;;;3.90;99.90;;;;;;5070179;28;20106;-62
2023/01/14 08:44:26;;;;;;;14.95;7.90;;;4.00;99.90;;;;;;5066189;28;20045;-62
2023/01/14 08:46:53;;;;;;;16.13;8.27;;;4.10;99.90;;;;;;5056896;28;20541;-62
2023/01/14 08:49:20;;;;;;;16.70;8.38;;;4.20;99.90;;;;;;5064964;28;20048;-62
2023/01/14 08:51:47;;;;;;;17.20;8.10;;;4.30;99.90;;;;;;5060506;28;20052;-62
2023/01/14 08:54:13;;;;;;;14.07;7.70;;;4.30;99.90;;;;;;5080796;28;20101;-62
2023/01/14 08:56:40;;;;;;;15.63;7.95;;;4.30;99.90;;;;;;5074648;28;20086;-62
2023/01/14 08:59:07;;;;;;;14.23;7.22;;;4.30;99.90;;;;;;5062483;28;20069;-62
2023/01/14 09:01:34;;;;;;;15.50;8.02;;;4.20;99.90;;;;;;5056813;28;20537;-62
2023/01/14 09:04:18;;;;;;;17.35;8.68;;;4.40;99.90;;;;;;5066288;28;20036;-62
2023/01/14 09:18:07;;;;;;;14.77;8.02;;;4.70;99.90;;;;;;5068000;28;20044;-62
2023/01/14 09:20:36;;;;;;;15.90;7.78;;;4.80;99.90;;;;;;5073538;28;20106;-62
2023/01/14 09:23:05;;;;;;;15.48;7.53;;;4.80;99.90;;;;;;5070731;28;20044;-62
2023/01/14 09:25:36;;;;;;;13.70;7.80;;;4.90;99.90;;;;;;5065543;28;20461;-62
2023/01/14 09:28:03;;;;;;;15.88;8.63;;;5.00;99.90;;;;;;5073090;28;20051;-62
2023/01/14 09:30:30;;;;;;;16.17;8.57;;;5.10;99.90;;;;;;5070757;28;20078;-62
2023/01/14 09:32:58;;;;;;;16.25;8.45;;;5.20;99.90;;;;;;5065892;28;20051;-62
2023/01/14 09:35:25;;;;;;;15.13;7.95;;;5.20;99.90;;;;;;5073057;28;20128;-62
2023/01/14 09:37:52;;;;;;;15.43;8.75;;;5.20;99.90;;;;;;5072308;28;20094;-62
2023/01/14 09:40:19;;;;;;;12.20;7.30;;;5.30;99.90;;;;;;5063512;28;20040;-61
2023/01/14 09:42:48;;;;;;;14.23;6.88;;;5.30;99.90;;;;;;5070729;28;20052;-62
2023/01/14 09:45:27;;;;;;;15.85;7.53;;;5.20;99.90;;;;;;5064556;28;20070;-62
2023/01/14 09:47:56;;;;;;;14.27;7.93;;;5.10;99.90;;;;;;5050740;28;20060;-62
2023/01/14 09:50:35;;;;;;;12.48;6.68;;;5.10;99.90;;;;;;5043934;28;20048;-62
2023/01/14 09:53:25;;;;;;;14.25;7.57;;;5.30;99.90;;;;;;5051712;28;20060;-62
2023/01/14 09:55:56;;;;;;;16.73;7.70;;;5.10;99.90;;;;;;5062005;28;20489;-62
2023/01/14 09:58:39;;;;;;;13.63;7.32;;;5.00;99.90;;;;;;5073416;28;20040;-62
2023/01/14 10:01:32;;;;;;;12.82;5.63;;;4.90;99.90;;;;;;5072411;28;20075;-62
2023/01/14 10:04:08;;;;;;;13.15;7.15;;;4.80;99.90;;;;;;5072600;28;20504;-62
2023/01/14 10:06:37;;;;;;;14.15;7.20;;;4.80;99.90;;;;;;5066453;28;20048;-62
2023/01/14 10:09:14;;;;;;;13.98;7.28;;;4.80;99.90;;;;;;5063504;28;20501;-62
2023/01/14 10:11:44;;;;;;;14.90;8.15;;;4.70;99.90;;;;;;5071372;28;20047;-62
2023/01/14 10:14:12;;;;;;;11.90;6.57;;;4.70;99.90;;;;;;5071951;28;20045;-62
2023/01/14 10:16:45;;;;;;;13.82;7.97;;;4.70;99.90;;;;;;5072226;28;20110;-62
2023/01/14 10:19:38;;;;;;;31.13;13.23;;;4.90;99.90;;;;;;5071942;28;20044;-62
2023/01/14 10:22:19;;;;;;;16.90;9.25;;;5.10;99.90;;;;;;5067004;28;20091;-62
2023/01/14 10:24:46;;;;;;;14.63;7.85;;;5.30;99.90;;;;;;5070149;28;20044;-62
2023/01/14 10:27:18;;;;;;;15.85;8.65;;;5.40;99.90;;;;;;5064944;28;20079;-62
2023/01/14 10:29:48;;;;;;;14.80;7.68;;;5.40;99.90;;;;;;5035208;28;20090;-62
2023/01/14 10:32:17;;;;;;;14.57;7.95;;;5.40;99.90;;;;;;5052294;28;20045;-62
2023/01/14 10:34:47;;;;;;;17.17;8.70;;;5.40;99.90;;;;;;5059453;28;20036;-62
2023/01/14 10:37:15;;;;;;;15.82;8.25;;;5.50;99.90;;;;;;5072622;28;20045;-62
2023/01/14 10:39:51;;;;;;;16.80;8.57;;;5.60;99.90;;;;;;5070981;28;20075;-62
2023/01/14 10:42:29;;;;;;;17.60;8.75;;;5.70;99.90;;;;;;5060140;28;20045;-62
2023/01/14 10:44:57;;;;;;;13.27;7.30;;;5.70;99.90;;;;;;5062135;28;20041;-62
2023/01/14 10:47:24;;;;;;;13.13;7.40;;;5.70;99.90;;;;;;5060760;28;20045;-62
2023/01/14 10:49:52;;;;;;;;;;;5.70;99.90;;;;;;5045016;28;20049;-62
2023/01/14 10:52:31;;;;;;;14.82;6.18;;;5.70;99.90;;;;;;5061576;28;19978;-62
2023/01/14 10:55:12;;;;;;;14.60;7.30;;;5.80;99.90;;;;;;5045019;28;20053;-62
2023/01/14 10:58:06;;;;;;;14.00;6.78;;;5.90;99.90;;;;;;5071367;28;20127;-62
2023/01/14 11:00:35;;;;;;;9.82;6.32;;;6.10;99.90;;;;;;5051509;28;20045;-62
2023/01/14 11:03:08;;;;;;;8.90;5.43;;;6.20;99.90;;;;;;5055199;28;20595;-62
2023/01/14 11:05:37;;;;;;;11.00;6.57;;;6.20;99.90;;;;;;5071621;28;20113;-62
2023/01/14 11:08:30;;;;;;;15.40;7.43;;;6.20;99.90;;;;;;5070893;28;20064;-62
2023/01/14 11:11:04;;;;;;;12.73;7.35;;;6.20;99.90;;;;;;5061888;28;20044;-62
2023/01/14 11:13:33;;;;;;;12.25;7.20;;;6.20;99.90;;;;;;5066015;28;20032;-62
2023/01/14 11:16:00;;;;;;;10.43;6.40;;;6.20;99.90;;;;;;5059226;28;20037;-62
2023/01/14 11:18:30;;;;;;;14.48;6.20;;;6.20;99.90;;;;;;5056736;28;20037;-62
2023/01/14 11:21:20;;;;;;;11.75;5.20;;;6.10;99.90;;;;;;5064797;28;20044;-62
2023/01/14 11:24:25;;;;;;;15.27;5.55;;;6.00;99.90;;;;;;5070509;28;20051;-62
2023/01/14 11:27:12;;;;;;;6.88;4.00;;;6.10;99.90;;;;;;5067082;22;20094;-61
2023/01/14 11:29:55;;;;;;;10.45;5.00;;;6.00;99.90;;;;;;5033156;28;20545;-62
2023/01/14 11:32:33;;;;;;;9.90;5.78;;;6.00;99.90;;;;;;5044154;28;20049;-61
2023/01/14 11:35:02;;;;;;;12.77;7.25;;;6.10;99.90;;;;;;5029411;28;20041;-64
2023/01/14 11:37:45;;;;;;;15.63;8.48;;;6.10;99.90;;;;;;5028862;28;20046;-62
2023/01/14 11:40:23;;;;;;;8.80;5.03;;;6.30;99.90;;;;;;5032695;28;20556;-61
2023/01/14 11:42:51;;;;;;;10.55;5.60;;;6.50;99.90;;;;;;5026851;28;20056;-61
2023/01/14 11:45:21;;;;;;;11.85;5.65;;;6.60;99.90;;;;;;5029461;28;20076;-61
2023/01/14 11:47:56;;;;;;;9.25;5.45;;;6.80;99.90;;;;;;5028635;28;20052;-62
2023/01/14 11:50:24;;;;;;;9.18;5.25;;;6.70;99.90;;;;;;5030309;28;20064;-61
2023/01/14 11:53:18;;;;;;;9.68;5.53;;;6.60;99.90;;;;;;5026480;28;20099;-62
2023/01/14 11:55:49;;;;;;;9.70;5.88;;;6.60;99.90;;;;;;5005459;28;20044;-62
2023/01/14 11:58:25;;;;;;;11.30;5.95;;;6.60;99.90;;;;;;5035822;28;20041;-61
2023/01/14 12:00:57;;;;;;;11.30;6.10;;;6.60;99.90;;;;;;5028532;28;20046;-62
2023/01/14 12:03:35;;;;;;;9.25;5.88;;;6.60;99.90;;;;;;5027728;28;20128;-61
2023/01/14 12:06:06;;;;;;;10.35;5.65;;;6.50;99.90;;;;;;5030923;28;20037;-61
2023/01/14 12:08:38;;;;;;;10.85;5.60;;;6.60;99.90;;;;;;5027836;28;20045;-61
2023/01/14 12:11:13;;;;;;;9.75;5.72;;;6.60;99.90;;;;;;5009572;28;20800;-61
2023/01/14 12:16:49;;;;;;;9.90;5.57;;;6.60;99.90;;;;;;5009564;28;20071;-61
2023/01/14 12:19:39;;;;;;;12.00;6.10;;;6.70;99.90;;;;;;5027573;28;20041;-62
2023/01/14 12:22:32;;;;;;;9.68;5.45;;;6.70;99.90;;;;;;5027478;28;20037;-62
2023/01/14 12:25:10;;;;;;;10.63;5.53;;;6.50;99.90;;;;;;5020394;28;20041;-62
2023/01/14 12:27:49;;;;;;;;;;;6.60;99.90;;;;;;5032628;28;20045;-62
2023/01/14 12:30:24;;;;;;;;;;;6.60;99.90;;;;;;5027162;28;20377;-61
2023/01/14 12:33:10;;;;;;;11.02;5.75;;;6.40;99.90;;;;;;5029972;28;19921;-61
2023/01/14 12:35:46;;;;;;;10.30;5.70;;;6.50;99.90;;;;;;5020894;28;20046;-62
2023/01/14 12:47:03;;;;;;;11.45;5.72;;;6.50;99.90;;;;;;5026292;28;20053;-62
2023/01/14 12:49:36;;;;;;;7.38;4.50;;;6.50;99.90;;;;;;5025832;28;20052;-62
2023/01/14 12:52:04;;;;;;;9.60;4.43;;;6.50;99.90;;;;;;5034339;28;20060;-61
2023/01/14 12:54:34;;;;;;;10.73;4.10;;;6.40;99.90;;;;;;5034571;28;20104;-61
2023/01/14 12:57:03;;;;;;;8.40;5.03;;;6.40;99.90;;;;;;5039622;28;20057;-62
2023/01/14 12:59:37;;;;;;;10.02;5.00;;;6.40;99.90;;;;;;5023037;28;20045;-62
2023/01/14 13:02:30;;;;;;;8.95;5.28;;;6.30;99.90;;;;;;5026378;28;20076;-61
2023/01/14 13:05:16;;;;;;;11.15;5.07;;;6.30;99.90;;;;;;5022707;28;20033;-61
2023/01/14 13:07:50;;;;;;;9.77;5.47;;;6.30;99.90;;;;;;5028925;28;20049;-61
2023/01/14 13:10:27;;;;;;;10.35;5.25;;;6.30;99.90;;;;;;5031916;28;20053;-61
2023/01/14 13:12:54;;;;;;;8.80;5.10;;;6.30;99.90;;;;;;5029999;28;20041;-62
2023/01/14 13:15:30;;;;;;;10.38;5.20;;;6.40;99.90;;;;;;5031853;28;20180;-62
2023/01/14 13:18:04;;;;;;;13.80;6.07;;;6.40;99.90;;;;;;5027109;28;20034;-61
2023/01/14 13:20:40;;;;;;;13.60;5.60;;;6.40;99.90;;;;;;5033488;28;20041;-61
2023/01/14 13:23:10;;;;;;;11.00;5.00;;;6.40;99.90;;;;;;5030145;28;20041;-61
2023/01/14 13:25:44;;;;;;;7.50;4.35;;;6.40;99.90;;;;;;5029378;28;20045;-61
2023/01/14 13:28:20;;;;;;;9.10;4.68;;;6.40;99.90;;;;;;5028775;28;20395;-61
2023/01/14 13:30:50;;;;;;;11.38;5.25;;;6.40;99.90;;;;;;5032309;28;20401;-61
2023/01/14 13:33:21;;;;;;;13.60;5.25;;;6.40;99.90;;;;;;5031479;28;20107;-61
2023/01/14 13:36:12;;;;;;;7.35;4.70;;;6.40;99.90;;;;;;5011499;28;20557;-62
2023/01/14 13:38:59;;;;;;;9.93;4.88;;;6.40;99.90;;;;;;5028635;28;20498;-61
2023/01/14 13:41:32;;;;;;;9.57;5.18;;;6.50;99.90;;;;;;5032349;28;20497;-62
2023/01/14 13:43:59;;;;;;;8.43;4.82;;;6.50;99.90;;;;;;5028483;28;20046;-61
2023/01/14 13:46:33;;;;;;;8.32;4.35;;;6.50;99.90;;;;;;5027230;28;20038;-62
2023/01/14 13:49:04;;;;;;;6.72;3.97;;;6.50;99.90;;;;;;5030683;28;20116;-61
2023/01/14 13:51:44;;;;;;;9.48;3.78;;;6.60;99.90;;;;;;5030042;28;20112;-62
2023/01/14 13:54:11;;;;;;;6.35;3.85;;;6.60;99.90;;;;;;5027342;28;20045;-61
2023/01/14 13:57:07;;;;;;;6.13;3.50;;;6.60;99.90;;;;;;5030370;28;20045;-61
2023/01/14 13:59:36;;;;;;;5.68;3.33;;;6.50;99.90;;;;;;5031930;28;20037;-62